ANG1 AYPY-YSSY
Flight info
| Callsign | ANG1 |
|---|---|
| Flight time | N/A |
| Altitude | 37000 |
| Route | LOTGU1 LOTGU DCT APISO B462 MK H652 BOREE DCT VASRA/N0449F380 DCT BUVLO DCT PRT DCT HBB DCT NOHD DCT BRNJ DCT DALAR |
| Aircraft | BCS3/M-SBDE2E3GIRWXY/LB1 |
Departure
| Time | 2026-04-27 01:12 |
|---|---|
| Airport | Port Moresby Jacksons International Airport (AYPY) |
Arrival
| Time | N/A |
|---|---|
| Airport | Sydney Kingsford Smith International Airport (YSSY) |
| Time | Latitude | Longitude | Altitude | Speed | Heading |
|---|---|---|---|---|---|
| 2026-04-27 00:58 | -9.43876 | 147.21211 | 138 ft | 0 kts | 237° |
| 2026-04-27 01:05 | -9.43871 | 147.21220 | 138 ft | 2 kts | 238° |
| 2026-04-27 01:05 | -9.43868 | 147.21234 | 138 ft | 2 kts | 274° |
| 2026-04-27 01:06 | -9.43868 | 147.21249 | 138 ft | 2 kts | 264° |
| 2026-04-27 01:06 | -9.43867 | 147.21265 | 138 ft | 2 kts | 268° |
| 2026-04-27 01:06 | -9.43866 | 147.21274 | 138 ft | 2 kts | 265° |
| 2026-04-27 01:06 | -9.43860 | 147.21287 | 138 ft | 2 kts | 217° |
| 2026-04-27 01:07 | -9.43845 | 147.21294 | 138 ft | 2 kts | 178° |
| 2026-04-27 01:07 | -9.43835 | 147.21291 | 138 ft | 0 kts | 150° |
| 2026-04-27 01:07 | -9.43829 | 147.21286 | 138 ft | 0 kts | 147° |
| 2026-04-27 01:09 | -9.43837 | 147.21292 | 138 ft | 3 kts | 146° |
| 2026-04-27 01:09 | -9.43854 | 147.21326 | 138 ft | 9 kts | 86° |
| 2026-04-27 01:09 | -9.43771 | 147.21349 | 138 ft | 22 kts | 335° |
| 2026-04-27 01:09 | -9.43621 | 147.21258 | 139 ft | 26 kts | 325° |
| 2026-04-27 01:10 | -9.43459 | 147.21158 | 139 ft | 29 kts | 329° |
| 2026-04-27 01:10 | -9.43296 | 147.21091 | 139 ft | 19 kts | 22° |
| 2026-04-27 01:10 | -9.43244 | 147.21149 | 139 ft | 10 kts | 60° |
| 2026-04-27 01:10 | -9.43201 | 147.21225 | 139 ft | 13 kts | 59° |
| 2026-04-27 01:11 | -9.43143 | 147.21318 | 139 ft | 17 kts | 60° |
| 2026-04-27 01:11 | -9.43128 | 147.21414 | 140 ft | 11 kts | 142° |
| 2026-04-27 01:11 | -9.43407 | 147.21588 | 140 ft | 85 kts | 148° |
| 2026-04-27 01:11 | -9.44124 | 147.22031 | 139 ft | 150 kts | 147° |
| 2026-04-27 01:12 | -9.45144 | 147.22588 | 364 ft | 175 kts | 153° |
| 2026-04-27 01:12 | -9.46206 | 147.23132 | 1100 ft | 168 kts | 150° |
| 2026-04-27 01:12 | -9.47346 | 147.23512 | 1431 ft | 178 kts | 171° |
| 2026-04-27 01:12 | -9.48680 | 147.23485 | 1822 ft | 196 kts | 176° |
| 2026-04-27 01:13 | -9.50010 | 147.23669 | 2221 ft | 215 kts | 167° |
| 2026-04-27 01:13 | -9.51521 | 147.24030 | 2745 ft | 231 kts | 162° |
| 2026-04-27 01:13 | -9.53138 | 147.24489 | 3211 ft | 249 kts | 161° |
| 2026-04-27 01:13 | -9.54847 | 147.24997 | 3722 ft | 262 kts | 161° |
| 2026-04-27 01:14 | -9.56645 | 147.25548 | 4311 ft | 269 kts | 161° |
| 2026-04-27 01:14 | -9.58445 | 147.26096 | 4925 ft | 273 kts | 161° |
| 2026-04-27 01:14 | -9.60263 | 147.26654 | 5525 ft | 277 kts | 162° |
| 2026-04-27 01:14 | -9.62146 | 147.27232 | 6113 ft | 282 kts | 162° |
| 2026-04-27 01:15 | -9.64051 | 147.27818 | 6690 ft | 287 kts | 162° |
| 2026-04-27 01:15 | -9.65983 | 147.28416 | 7259 ft | 288 kts | 162° |
| 2026-04-27 01:15 | -9.67912 | 147.29002 | 7781 ft | 295 kts | 163° |
| 2026-04-27 01:15 | -9.69898 | 147.29611 | 8273 ft | 297 kts | 163° |
| 2026-04-27 01:16 | -9.71893 | 147.30223 | 8804 ft | 297 kts | 164° |
| 2026-04-27 01:16 | -9.73900 | 147.30844 | 9285 ft | 302 kts | 164° |
| 2026-04-27 01:16 | -9.75912 | 147.31459 | 9742 ft | 306 kts | 164° |
| 2026-04-27 01:16 | -9.77957 | 147.32082 | 10205 ft | 308 kts | 165° |
| 2026-04-27 01:17 | -9.80087 | 147.32738 | 10458 ft | 323 kts | 165° |
| 2026-04-27 01:17 | -9.82284 | 147.33415 | 10657 ft | 339 kts | 164° |
| 2026-04-27 01:17 | -9.84613 | 147.34129 | 10847 ft | 352 kts | 164° |
| 2026-04-27 01:17 | -9.87013 | 147.34863 | 11108 ft | 358 kts | 163° |
| 2026-04-27 01:18 | -9.89402 | 147.35594 | 11417 ft | 361 kts | 165° |
| 2026-04-27 01:18 | -9.91834 | 147.36351 | 11755 ft | 363 kts | 166° |
| 2026-04-27 01:18 | -9.94244 | 147.37094 | 12044 ft | 366 kts | 164° |
| 2026-04-27 01:18 | -9.96718 | 147.37849 | 12348 ft | 368 kts | 164° |
| 2026-04-27 01:19 | -9.99192 | 147.38597 | 12695 ft | 369 kts | 165° |
| 2026-04-27 01:19 | -10.01652 | 147.39368 | 12992 ft | 371 kts | 165° |
| 2026-04-27 01:19 | -10.04154 | 147.40144 | 13243 ft | 374 kts | 164° |
| 2026-04-27 01:19 | -10.06662 | 147.40897 | 13555 ft | 373 kts | 164° |
| 2026-04-27 01:20 | -10.09178 | 147.41676 | 13846 ft | 374 kts | 166° |
| 2026-04-27 01:20 | -10.11690 | 147.42461 | 14139 ft | 377 kts | 165° |
| 2026-04-27 01:20 | -10.14201 | 147.43221 | 14430 ft | 377 kts | 164° |
| 2026-04-27 01:20 | -10.16750 | 147.44005 | 14706 ft | 379 kts | 165° |
| 2026-04-27 01:21 | -10.19271 | 147.44791 | 14964 ft | 380 kts | 165° |
| 2026-04-27 01:21 | -10.21831 | 147.45575 | 15226 ft | 380 kts | 164° |
| 2026-04-27 01:21 | -10.24411 | 147.46320 | 15463 ft | 382 kts | 170° |
| 2026-04-27 01:21 | -10.27065 | 147.46518 | 15686 ft | 379 kts | 177° |
| 2026-04-27 01:22 | -10.29685 | 147.46764 | 15927 ft | 380 kts | 179° |
| 2026-04-27 01:22 | -10.32363 | 147.46992 | 16171 ft | 383 kts | 176° |
| 2026-04-27 01:22 | -10.35015 | 147.47186 | 16432 ft | 382 kts | 176° |
| 2026-04-27 01:22 | -10.37695 | 147.47403 | 16681 ft | 384 kts | 178° |
| 2026-04-27 01:23 | -10.40396 | 147.47638 | 16917 ft | 384 kts | 178° |
| 2026-04-27 01:23 | -10.43064 | 147.47855 | 17141 ft | 386 kts | 176° |
| 2026-04-27 01:23 | -10.45749 | 147.48059 | 17396 ft | 385 kts | 176° |
| 2026-04-27 01:23 | -10.48452 | 147.48282 | 17632 ft | 388 kts | 178° |
| 2026-04-27 01:24 | -10.51172 | 147.48514 | 17832 ft | 390 kts | 178° |
| 2026-04-27 01:24 | -10.53900 | 147.48735 | 18068 ft | 390 kts | 176° |
| 2026-04-27 01:24 | -10.56647 | 147.48946 | 18284 ft | 391 kts | 176° |
| 2026-04-27 01:24 | -10.59395 | 147.49176 | 18485 ft | 393 kts | 178° |
| 2026-04-27 01:25 | -10.62111 | 147.49403 | 18705 ft | 394 kts | 177° |
| 2026-04-27 01:25 | -10.64871 | 147.49622 | 18919 ft | 395 kts | 176° |
| 2026-04-27 01:25 | -10.67627 | 147.49840 | 19086 ft | 398 kts | 177° |
| 2026-04-27 01:25 | -10.70408 | 147.50070 | 19289 ft | 397 kts | 178° |
| 2026-04-27 01:26 | -10.73188 | 147.50304 | 19477 ft | 399 kts | 178° |
| 2026-04-27 01:26 | -10.75965 | 147.50522 | 19671 ft | 400 kts | 177° |
| 2026-04-27 01:26 | -10.78768 | 147.50751 | 19847 ft | 402 kts | 178° |
| 2026-04-27 01:26 | -10.81581 | 147.50981 | 20032 ft | 403 kts | 178° |
| 2026-04-27 01:27 | -10.84400 | 147.51210 | 20202 ft | 403 kts | 178° |
| 2026-04-27 01:27 | -10.87204 | 147.51440 | 20383 ft | 405 kts | 178° |
| 2026-04-27 01:27 | -10.90053 | 147.51671 | 20548 ft | 406 kts | 177° |
| 2026-04-27 01:27 | -10.92863 | 147.51898 | 20729 ft | 406 kts | 178° |
| 2026-04-27 01:28 | -10.95723 | 147.52135 | 20886 ft | 407 kts | 178° |
| 2026-04-27 01:28 | -10.98559 | 147.52364 | 21050 ft | 409 kts | 178° |
| 2026-04-27 01:28 | -11.01436 | 147.52597 | 21221 ft | 409 kts | 178° |
| 2026-04-27 01:28 | -11.04271 | 147.52832 | 21370 ft | 410 kts | 178° |
| 2026-04-27 01:29 | -11.07166 | 147.53067 | 21524 ft | 412 kts | 178° |
| 2026-04-27 01:29 | -11.10010 | 147.53294 | 21679 ft | 411 kts | 178° |
| 2026-04-27 01:29 | -11.12913 | 147.53534 | 21813 ft | 414 kts | 178° |
| 2026-04-27 01:29 | -11.15818 | 147.53772 | 21970 ft | 414 kts | 178° |
| 2026-04-27 01:30 | -11.18710 | 147.54005 | 22117 ft | 415 kts | 178° |
| 2026-04-27 01:30 | -11.21613 | 147.54245 | 22262 ft | 415 kts | 178° |
| 2026-04-27 01:30 | -11.24498 | 147.54483 | 22398 ft | 417 kts | 178° |
| 2026-04-27 01:30 | -11.27433 | 147.54718 | 22522 ft | 419 kts | 178° |
| 2026-04-27 01:31 | -11.30361 | 147.54956 | 22663 ft | 419 kts | 179° |
| 2026-04-27 01:31 | -11.33293 | 147.55199 | 22793 ft | 420 kts | 178° |
| 2026-04-27 01:31 | -11.36240 | 147.55441 | 22937 ft | 420 kts | 178° |
| 2026-04-27 01:31 | -11.39154 | 147.55670 | 23067 ft | 421 kts | 178° |
| 2026-04-27 01:32 | -11.42115 | 147.55917 | 23193 ft | 422 kts | 179° |
| 2026-04-27 01:32 | -11.45049 | 147.56168 | 23326 ft | 422 kts | 179° |
| 2026-04-27 01:32 | -11.48015 | 147.56403 | 23450 ft | 423 kts | 178° |
| 2026-04-27 01:32 | -11.50955 | 147.56638 | 23580 ft | 424 kts | 178° |
| 2026-04-27 01:33 | -11.53940 | 147.56880 | 23709 ft | 424 kts | 179° |
| 2026-04-27 01:33 | -11.56877 | 147.57130 | 23834 ft | 424 kts | 179° |
| 2026-04-27 01:33 | -11.59857 | 147.57375 | 23965 ft | 425 kts | 179° |
| 2026-04-27 01:33 | -11.62833 | 147.57616 | 24092 ft | 426 kts | 179° |
| 2026-04-27 01:34 | -11.65775 | 147.57848 | 24217 ft | 425 kts | 179° |
| 2026-04-27 01:34 | -11.68769 | 147.58101 | 24343 ft | 425 kts | 179° |
| 2026-04-27 01:34 | -11.71762 | 147.58351 | 24471 ft | 426 kts | 179° |
| 2026-04-27 01:34 | -11.74707 | 147.58589 | 24594 ft | 426 kts | 179° |
| 2026-04-27 01:35 | -11.77693 | 147.58823 | 24721 ft | 426 kts | 180° |
| 2026-04-27 01:35 | -11.80664 | 147.59076 | 24848 ft | 425 kts | 180° |
| 2026-04-27 01:35 | -11.83634 | 147.59326 | 24974 ft | 425 kts | 180° |
| 2026-04-27 01:35 | -11.86589 | 147.59561 | 25098 ft | 426 kts | 179° |
| 2026-04-27 01:36 | -11.89575 | 147.59796 | 25223 ft | 425 kts | 180° |
| 2026-04-27 01:36 | -11.92543 | 147.60049 | 25352 ft | 425 kts | 180° |
| 2026-04-27 01:36 | -11.95526 | 147.60298 | 25482 ft | 424 kts | 180° |
| 2026-04-27 01:36 | -11.98482 | 147.60539 | 25606 ft | 424 kts | 180° |
| 2026-04-27 01:37 | -12.01419 | 147.60844 | 25721 ft | 428 kts | 175° |
| 2026-04-27 01:37 | -12.04369 | 147.61327 | 25863 ft | 425 kts | 177° |
| 2026-04-27 01:37 | -12.07336 | 147.61815 | 25993 ft | 425 kts | 176° |
| 2026-04-27 01:37 | -12.10249 | 147.62257 | 26120 ft | 425 kts | 175° |
| 2026-04-27 01:38 | -12.13186 | 147.62697 | 26251 ft | 424 kts | 176° |
| 2026-04-27 01:38 | -12.16135 | 147.63164 | 26381 ft | 423 kts | 177° |
| 2026-04-27 01:38 | -12.19048 | 147.63625 | 26513 ft | 423 kts | 177° |
| 2026-04-27 01:38 | -12.22001 | 147.64082 | 26645 ft | 423 kts | 176° |
| 2026-04-27 01:39 | -12.24901 | 147.64528 | 26771 ft | 422 kts | 176° |
| 2026-04-27 01:39 | -12.27836 | 147.64980 | 26901 ft | 421 kts | 177° |
| 2026-04-27 01:39 | -12.30738 | 147.65442 | 27015 ft | 421 kts | 177° |
| 2026-04-27 01:39 | -12.33661 | 147.65898 | 27129 ft | 421 kts | 176° |
| 2026-04-27 01:40 | -12.36594 | 147.66347 | 27243 ft | 420 kts | 176° |
| 2026-04-27 01:40 | -12.39478 | 147.66792 | 27352 ft | 419 kts | 176° |
| 2026-04-27 01:40 | -12.42392 | 147.67253 | 27471 ft | 418 kts | 177° |
| 2026-04-27 01:40 | -12.45305 | 147.67712 | 27589 ft | 418 kts | 177° |
| 2026-04-27 01:41 | -12.48174 | 147.68150 | 27698 ft | 418 kts | 177° |
| 2026-04-27 01:41 | -12.51064 | 147.68602 | 27817 ft | 417 kts | 177° |
| 2026-04-27 01:41 | -12.53958 | 147.69054 | 27928 ft | 416 kts | 178° |
| 2026-04-27 01:41 | -12.56833 | 147.69502 | 28046 ft | 416 kts | 177° |
| 2026-04-27 01:42 | -12.59747 | 147.69959 | 28160 ft | 415 kts | 177° |
| 2026-04-27 01:42 | -12.62617 | 147.70404 | 28272 ft | 414 kts | 177° |
| 2026-04-27 01:42 | -12.65486 | 147.70851 | 28388 ft | 414 kts | 177° |
| 2026-04-27 01:42 | -12.68342 | 147.71297 | 28500 ft | 413 kts | 178° |
| 2026-04-27 01:43 | -12.71193 | 147.71744 | 28620 ft | 412 kts | 178° |
| 2026-04-27 01:43 | -12.74043 | 147.72189 | 28737 ft | 412 kts | 178° |
| 2026-04-27 01:43 | -12.76922 | 147.72636 | 28865 ft | 411 kts | 177° |
| 2026-04-27 01:43 | -12.79762 | 147.73079 | 28978 ft | 411 kts | 177° |
| 2026-04-27 01:44 | -12.82605 | 147.73526 | 29101 ft | 411 kts | 177° |
| 2026-04-27 01:44 | -12.85466 | 147.73973 | 29221 ft | 410 kts | 178° |
| 2026-04-27 01:44 | -12.88305 | 147.74416 | 29350 ft | 410 kts | 178° |
| 2026-04-27 01:44 | -12.91138 | 147.74857 | 29466 ft | 409 kts | 178° |
| 2026-04-27 01:45 | -12.93936 | 147.75296 | 29588 ft | 409 kts | 178° |
| 2026-04-27 01:45 | -12.96773 | 147.75740 | 29708 ft | 408 kts | 178° |
| 2026-04-27 01:45 | -12.99596 | 147.76180 | 29829 ft | 407 kts | 178° |
| 2026-04-27 01:45 | -13.02437 | 147.76627 | 29954 ft | 407 kts | 178° |
| 2026-04-27 01:46 | -13.05239 | 147.77065 | 30071 ft | 406 kts | 178° |
| 2026-04-27 01:46 | -13.08050 | 147.77504 | 30195 ft | 405 kts | 178° |
| 2026-04-27 01:46 | -13.10847 | 147.77945 | 30319 ft | 404 kts | 178° |
| 2026-04-27 01:46 | -13.13675 | 147.78386 | 30431 ft | 404 kts | 178° |
| 2026-04-27 01:47 | -13.16466 | 147.78822 | 30551 ft | 403 kts | 178° |
| 2026-04-27 01:47 | -13.19242 | 147.79259 | 30665 ft | 402 kts | 178° |
| 2026-04-27 01:47 | -13.22020 | 147.79695 | 30780 ft | 401 kts | 178° |
| 2026-04-27 01:47 | -13.24824 | 147.80133 | 30903 ft | 400 kts | 178° |
| 2026-04-27 01:48 | -13.27571 | 147.80566 | 31018 ft | 399 kts | 178° |
| 2026-04-27 01:48 | -13.30342 | 147.80998 | 31134 ft | 398 kts | 178° |
| 2026-04-27 01:48 | -13.33100 | 147.81432 | 31250 ft | 397 kts | 178° |
| 2026-04-27 01:48 | -13.35824 | 147.81860 | 31366 ft | 395 kts | 178° |
| 2026-04-27 01:49 | -13.38572 | 147.82291 | 31484 ft | 394 kts | 178° |
| 2026-04-27 01:49 | -13.41272 | 147.82715 | 31598 ft | 393 kts | 179° |
| 2026-04-27 01:49 | -13.43995 | 147.83141 | 31716 ft | 391 kts | 178° |
| 2026-04-27 01:49 | -13.46694 | 147.83566 | 31837 ft | 389 kts | 178° |
| 2026-04-27 01:50 | -13.49418 | 147.83993 | 31951 ft | 387 kts | 178° |
| 2026-04-27 01:50 | -13.52087 | 147.84412 | 32065 ft | 385 kts | 178° |
| 2026-04-27 01:50 | -13.54749 | 147.84833 | 32183 ft | 383 kts | 179° |
| 2026-04-27 01:50 | -13.57372 | 147.85246 | 32305 ft | 381 kts | 179° |
| 2026-04-27 01:51 | -13.60026 | 147.85663 | 32446 ft | 378 kts | 179° |
| 2026-04-27 01:51 | -13.62636 | 147.86073 | 32559 ft | 375 kts | 178° |
| 2026-04-27 01:51 | -13.65243 | 147.86487 | 32686 ft | 373 kts | 179° |
| 2026-04-27 01:51 | -13.67810 | 147.86887 | 32816 ft | 370 kts | 179° |
| 2026-04-27 01:52 | -13.70358 | 147.87289 | 32945 ft | 367 kts | 179° |
| 2026-04-27 01:52 | -13.72888 | 147.87688 | 33082 ft | 363 kts | 179° |
| 2026-04-27 01:52 | -13.75386 | 147.88081 | 33213 ft | 360 kts | 179° |
| 2026-04-27 01:52 | -13.77871 | 147.88472 | 33346 ft | 356 kts | 179° |
| 2026-04-27 01:53 | -13.80310 | 147.88860 | 33479 ft | 352 kts | 179° |
| 2026-04-27 01:53 | -13.82722 | 147.89241 | 33608 ft | 347 kts | 180° |
| 2026-04-27 01:53 | -13.85122 | 147.89613 | 33728 ft | 343 kts | 179° |
| 2026-04-27 01:53 | -13.87499 | 147.89993 | 33863 ft | 337 kts | 180° |
| 2026-04-27 01:54 | -13.89823 | 147.90358 | 33977 ft | 332 kts | 180° |
| 2026-04-27 01:54 | -13.92101 | 147.90720 | 34094 ft | 326 kts | 180° |
| 2026-04-27 01:54 | -13.94334 | 147.91072 | 34190 ft | 318 kts | 180° |
| 2026-04-27 01:54 | -13.96511 | 147.91419 | 34308 ft | 306 kts | 181° |
| 2026-04-27 01:55 | -13.98563 | 147.91745 | 34428 ft | 289 kts | 182° |
| 2026-04-27 01:55 | -14.00491 | 147.92055 | 34333 ft | 269 kts | 182° |
| 2026-04-27 01:55 | -14.02331 | 147.92352 | 33874 ft | 262 kts | 182° |
| 2026-04-27 01:55 | -14.04172 | 147.92696 | 32974 ft | 273 kts | 180° |
| 2026-04-27 01:56 | -14.07885 | 147.93593 | 32079 ft | 258 kts | 175° |
| 2026-04-27 01:56 | -14.09605 | 147.94132 | 31608 ft | 257 kts | 173° |
| 2026-04-27 01:56 | -14.11338 | 147.94737 | 30931 ft | 263 kts | 171° |
| 2026-04-27 01:57 | -14.13051 | 147.95416 | 30520 ft | 256 kts | 169° |
| 2026-04-27 01:57 | -14.14653 | 147.96132 | 30165 ft | 249 kts | 167° |
| 2026-04-27 01:57 | -14.16236 | 147.96910 | 29610 ft | 252 kts | 165° |
| 2026-04-27 01:57 | -14.17804 | 147.97745 | 29100 ft | 251 kts | 162° |
| 2026-04-27 01:58 | -14.19314 | 147.98633 | 28754 ft | 244 kts | 160° |
| 2026-04-27 01:58 | -14.20753 | 147.99559 | 28320 ft | 244 kts | 158° |
| 2026-04-27 01:58 | -14.22177 | 148.00531 | 27839 ft | 246 kts | 156° |
| 2026-04-27 01:58 | -14.23561 | 148.01540 | 27459 ft | 242 kts | 154° |
| 2026-04-27 01:59 | -14.24912 | 148.02585 | 27104 ft | 237 kts | 152° |
| 2026-04-27 01:59 | -14.26191 | 148.03639 | 26721 ft | 235 kts | 150° |
| 2026-04-27 01:59 | -14.27456 | 148.04738 | 26292 ft | 235 kts | 148° |
| 2026-04-27 01:59 | -14.28683 | 148.05861 | 25904 ft | 233 kts | 146° |
| 2026-04-27 02:00 | -14.29856 | 148.06998 | 25564 ft | 229 kts | 143° |
| 2026-04-27 02:00 | -14.30990 | 148.08164 | 25170 ft | 230 kts | 141° |
| 2026-04-27 02:00 | -14.32101 | 148.09364 | 24788 ft | 228 kts | 139° |
| 2026-04-27 02:00 | -14.33151 | 148.10567 | 24475 ft | 223 kts | 137° |
| 2026-04-27 02:01 | -14.34154 | 148.11789 | 24109 ft | 222 kts | 135° |
| 2026-04-27 02:01 | -14.35129 | 148.13043 | 23754 ft | 220 kts | 133° |
| 2026-04-27 02:01 | -14.36042 | 148.14300 | 23458 ft | 217 kts | 130° |
| 2026-04-27 02:01 | -14.36904 | 148.15573 | 23100 ft | 217 kts | 128° |
| 2026-04-27 02:02 | -14.37741 | 148.16885 | 22771 ft | 214 kts | 126° |
| 2026-04-27 02:02 | -14.38511 | 148.18178 | 22497 ft | 210 kts | 124° |
| 2026-04-27 02:02 | -14.39247 | 148.19492 | 22126 ft | 211 kts | 122° |
| 2026-04-27 02:02 | -14.39939 | 148.20827 | 21788 ft | 209 kts | 120° |